Weather at Mishmar Ayalon Highway Strip H

Public forecast

Using degrees Celsius for public forecast. Weather courtesy of forecast.io.

Closest aviation weather report (METAR) to Mishmar Ayalon Highway Strip H

Closest report is Ben Gurion International Airport, 8.3 nm (15.4 km) NNW. Retrieved 2021/10/23 12:20 UTC (33 minutes ago):

LLBG 231220Z 30011KT 9999 FEW044 26/14 Q1017 NOSIG

Closest aviation forecast (TAF) to Mishmar Ayalon Highway Strip H

Closest forecast is Ben Gurion International Airport, 8.3 nm (15.4 km) NNW. Retrieved 2021/10/23 12:15 UTC (38 minutes ago):

TAF LLBG 231112Z 2312/2412 33012KT 9999 FEW050 BECMG 2316/2318 02005KT FEW040 BECMG 2321/2323 VRB03KT TEMPO 2402/2405 SCT035 BECMG 2406/2408 32010KT TX27/2312Z TN17/2404Z